PWSweather.com
Personal Weather Stations
Station Observations
PRATO
PratoIT 59100

PratoIT 59100

Lat: 43.8956799, Lon: 11.0845155

Elevation: 164

Station Type: Davis Vantage Vue

http://www.meteoprato.it

High Low Average
Temperature 59.1°F15.1°C 51.9°F11.1°C 54.7°F12.6°C
Dew Point 51.8°F11.0°C 44.6°F7.0°C 48.9°F9.4°C
Winds 13.4 mph 21.6 kmh Calm Calm 4.0 mph NE6.4 kmh NE
Wind Gusts 25.0 mph40.2 kmh -- 8.0 mph12.9 kmh
Humidity 90% 68% 81%
Pressure 29.91 in1012.9 mb 29.71 in1006.1 mb -
Precipitation 0.13 in3.3 mm - -
Hour Temp Dew Point Humidity Winds Wind Gusts Pressure Precip Precip Rate Daily Precip Total
12:00 AM 53.8°F12.1°C 45.7°F7.6°C 74% 3.2 mph NE5.1 kmh NE 9.0 mph14.5 kmh 29.91 in1012.9 mb 0.00 in0.0 mm 0.00 in0.0 mm 0.00 in0.0 mm
12:05 AM 53.7°F12.1°C 46.0°F7.8°C 75% 4.2 mph NE6.8 kmh NE 11.0 mph17.7 kmh 29.91 in1012.9 mb 0.00 in0.0 mm 0.00 in0.0 mm 0.00 in0.0 mm
12:10 AM 53.5°F11.9°C 45.8°F7.7°C 75% 5.9 mph NE9.5 kmh NE 12.0 mph19.3 kmh 29.91 in1012.9 mb 0.00 in0.0 mm 0.00 in0.0 mm 0.00 in0.0 mm
12:15 AM 53.4°F11.9°C 46.0°F7.8°C 76% 6.9 mph NE11.1 kmh NE 13.0 mph20.9 kmh 29.90 in1012.5 mb 0.00 in0.0 mm 0.00 in0.0 mm 0.00 in0.0 mm
12:20 AM 53.2°F11.8°C 45.8°F7.7°C 76% 7.5 mph NE12.1 kmh NE 16.0 mph25.7 kmh 29.90 in1012.5 mb 0.00 in0.0 mm 0.00 in0.0 mm 0.00 in0.0 mm
12:25 AM 53.1°F11.7°C 46.1°F7.8°C 77% 8.3 mph NE13.4 kmh NE 16.0 mph25.7 kmh 29.90 in1012.5 mb 0.00 in0.0 mm 0.00 in0.0 mm 0.00 in0.0 mm
12:30 AM 53.1°F11.7°C 46.1°F7.8°C 77% 8.9 mph NE14.3 kmh NE 17.0 mph27.4 kmh 29.90 in1012.5 mb 0.00 in0.0 mm 0.00 in0.0 mm 0.00 in0.0 mm
12:35 AM 53.1°F11.7°C 45.7°F7.6°C 76% 9.7 mph NE15.6 kmh NE 18.0 mph29.0 kmh 29.90 in1012.5 mb 0.00 in0.0 mm 0.00 in0.0 mm 0.00 in0.0 mm
12:40 AM 53.2°F11.8°C 45.8°F7.7°C 76% 10.5 mph NE16.9 kmh NE 18.0 mph29.0 kmh 29.90 in1012.5 mb 0.00 in0.0 mm 0.00 in0.0 mm 0.00 in0.0 mm
12:45 AM 53.4°F11.9°C 46.0°F7.8°C 76% 10.7 mph NE17.2 kmh NE 18.0 mph29.0 kmh 29.89 in1012.2 mb 0.00 in0.0 mm 0.00 in0.0 mm 0.00 in0.0 mm
12:50 AM 53.4°F11.9°C 46.0°F7.8°C 76% 10.3 mph NE16.6 kmh NE 18.0 mph29.0 kmh 29.89 in1012.2 mb 0.00 in0.0 mm 0.00 in0.0 mm 0.00 in0.0 mm
12:55 AM 53.5°F11.9°C 46.1°F7.8°C 76% 10.0 mph NE16.1 kmh NE 17.0 mph27.4 kmh 29.89 in1012.2 mb 0.00 in0.0 mm 0.00 in0.0 mm 0.00 in0.0 mm
01:00 AM 53.6°F12.0°C 45.9°F7.7°C 75% 10.3 mph NE16.6 kmh NE 18.0 mph29.0 kmh 29.89 in1012.2 mb 0.00 in0.0 mm 0.00 in0.0 mm 0.00 in0.0 mm
01:05 AM 53.6°F12.0°C 45.9°F7.7°C 75% 11.1 mph NE17.9 kmh NE 18.0 mph29.0 kmh 29.89 in1012.2 mb 0.00 in0.0 mm 0.00 in0.0 mm 0.00 in0.0 mm
01:10 AM 53.6°F12.0°C 45.9°F7.7°C 75% 11.8 mph NE19.0 kmh NE 19.0 mph30.6 kmh 29.89 in1012.2 mb 0.00 in0.0 mm 0.00 in0.0 mm 0.00 in0.0 mm
01:15 AM 53.8°F12.1°C 45.7°F7.6°C 74% 12.0 mph NE19.3 kmh NE 21.0 mph33.8 kmh 29.88 in1011.9 mb 0.00 in0.0 mm 0.00 in0.0 mm 0.00 in0.0 mm
01:20 AM 53.9°F12.2°C 45.4°F7.4°C 73% 12.1 mph NE19.5 kmh NE 21.0 mph33.8 kmh 29.88 in1011.9 mb 0.00 in0.0 mm 0.00 in0.0 mm 0.00 in0.0 mm
01:25 AM 54.1°F12.3°C 45.3°F7.4°C 72% 12.6 mph NE20.3 kmh NE 23.0 mph37.0 kmh 29.89 in1012.2 mb 0.00 in0.0 mm 0.00 in0.0 mm 0.00 in0.0 mm
01:30 AM 54.1°F12.3°C 45.3°F7.4°C 72% 12.8 mph NE20.6 kmh NE 23.0 mph37.0 kmh 29.89 in1012.2 mb 0.00 in0.0 mm 0.00 in0.0 mm 0.00 in0.0 mm
01:35 AM 54.2°F12.3°C 45.0°F7.2°C 71% 12.9 mph NE20.8 kmh NE 25.0 mph40.2 kmh 29.89 in1012.2 mb 0.00 in0.0 mm 0.00 in0.0 mm 0.00 in0.0 mm
01:40 AM 54.4°F12.4°C 45.2°F7.3°C 71% 13.4 mph NE21.6 kmh NE 25.0 mph40.2 kmh 29.88 in1011.9 mb 0.00 in0.0 mm 0.00 in0.0 mm 0.00 in0.0 mm
01:45 AM 54.5°F12.5°C 44.9°F7.2°C 70% 13.1 mph NE21.1 kmh NE 23.0 mph37.0 kmh 29.89 in1012.2 mb 0.00 in0.0 mm 0.00 in0.0 mm 0.00 in0.0 mm
01:50 AM 54.6°F12.6°C 45.0°F7.2°C 70% 12.3 mph NE19.8 kmh NE 21.0 mph33.8 kmh 29.89 in1012.2 mb 0.00 in0.0 mm 0.00 in0.0 mm 0.00 in0.0 mm
01:55 AM 54.6°F12.6°C 45.0°F7.2°C 70% 12.3 mph NE19.8 kmh NE 21.0 mph33.8 kmh 29.89 in1012.2 mb 0.00 in0.0 mm 0.00 in0.0 mm 0.00 in0.0 mm
02:00 AM 54.7°F12.6°C 45.1°F7.3°C 70% 12.8 mph NE20.6 kmh NE 21.0 mph33.8 kmh 29.89 in1012.2 mb 0.00 in0.0 mm 0.00 in0.0 mm 0.00 in0.0 mm
02:05 AM 54.8°F12.7°C 44.8°F7.1°C 69% 12.7 mph NE20.4 kmh NE 19.0 mph30.6 kmh 29.89 in1012.2 mb 0.00 in0.0 mm 0.00 in0.0 mm 0.00 in0.0 mm
02:10 AM 54.9°F12.7°C 44.9°F7.2°C 69% 12.2 mph NE19.6 kmh NE 19.0 mph30.6 kmh 29.89 in1012.2 mb 0.00 in0.0 mm 0.00 in0.0 mm 0.00 in0.0 mm
02:15 AM 54.9°F12.7°C 44.9°F7.2°C 69% 12.0 mph NE19.3 kmh NE 20.0 mph32.2 kmh 29.88 in1011.9 mb 0.00 in0.0 mm 0.00 in0.0 mm 0.00 in0.0 mm
02:20 AM 54.9°F12.7°C 44.9°F7.2°C 69% 12.2 mph NE19.6 kmh NE 20.0 mph32.2 kmh 29.89 in1012.2 mb 0.00 in0.0 mm 0.00 in0.0 mm 0.00 in0.0 mm
02:25 AM 54.9°F12.7°C 44.9°F7.2°C 69% 12.7 mph NE20.4 kmh NE 21.0 mph33.8 kmh 29.88 in1011.9 mb 0.00 in0.0 mm 0.00 in0.0 mm 0.00 in0.0 mm
02:30 AM 55.0°F12.8°C 44.6°F7.0°C 68% 13.0 mph NE20.9 kmh NE 21.0 mph33.8 kmh 29.89 in1012.2 mb 0.00 in0.0 mm 0.00 in0.0 mm 0.00 in0.0 mm
02:35 AM 55.0°F12.8°C 44.6°F7.0°C 68% 12.6 mph NE20.3 kmh NE 21.0 mph33.8 kmh 29.89 in1012.2 mb 0.00 in0.0 mm 0.00 in0.0 mm 0.00 in0.0 mm
02:40 AM 55.0°F12.8°C 44.6°F7.0°C 68% 11.7 mph NE18.8 kmh NE 21.0 mph33.8 kmh 29.88 in1011.9 mb 0.00 in0.0 mm 0.00 in0.0 mm 0.00 in0.0 mm
02:45 AM 55.1°F12.8°C 44.7°F7.1°C 68% 11.1 mph NE17.9 kmh NE 21.0 mph33.8 kmh 29.88 in1011.9 mb 0.00 in0.0 mm 0.00 in0.0 mm 0.00 in0.0 mm
02:50 AM 55.1°F12.8°C 44.7°F7.1°C 68% 11.4 mph NE18.3 kmh NE 19.0 mph30.6 kmh 29.88 in1011.9 mb 0.00 in0.0 mm 0.00 in0.0 mm 0.00 in0.0 mm
02:55 AM 55.0°F12.8°C 45.0°F7.2°C 69% 11.3 mph NE18.2 kmh NE 22.0 mph35.4 kmh 29.88 in1011.9 mb 0.00 in0.0 mm 0.00 in0.0 mm 0.00 in0.0 mm
03:00 AM 55.0°F12.8°C 45.0°F7.2°C 69% 10.4 mph NE16.7 kmh NE 22.0 mph35.4 kmh 29.88 in1011.9 mb 0.00 in0.0 mm 0.00 in0.0 mm 0.00 in0.0 mm
03:05 AM 55.1°F12.8°C 45.1°F7.3°C 69% 10.1 mph NE16.3 kmh NE 22.0 mph35.4 kmh 29.88 in1011.9 mb 0.00 in0.0 mm 0.00 in0.0 mm 0.00 in0.0 mm
03:10 AM 55.1°F12.8°C 45.1°F7.3°C 69% 10.6 mph NE17.1 kmh NE 22.0 mph35.4 kmh 29.88 in1011.9 mb 0.00 in0.0 mm 0.00 in0.0 mm 0.00 in0.0 mm
03:15 AM 55.1°F12.8°C 45.1°F7.3°C 69% 10.8 mph NE17.4 kmh NE 20.0 mph32.2 kmh 29.88 in1011.9 mb 0.00 in0.0 mm 0.00 in0.0 mm 0.00 in0.0 mm
03:20 AM 55.1°F12.8°C 45.1°F7.3°C 69% 10.9 mph NE17.5 kmh NE 21.0 mph33.8 kmh 29.88 in1011.9 mb 0.00 in0.0 mm 0.00 in0.0 mm 0.00 in0.0 mm
03:25 AM 55.2°F12.9°C 45.2°F7.3°C 69% 11.4 mph NE18.3 kmh NE 21.0 mph33.8 kmh 29.89 in1012.2 mb 0.00 in0.0 mm 0.00 in0.0 mm 0.00 in0.0 mm
03:30 AM 55.1°F12.8°C 45.5°F7.5°C 70% 11.3 mph NE18.2 kmh NE 21.0 mph33.8 kmh 29.88 in1011.9 mb 0.00 in0.0 mm 0.00 in0.0 mm 0.00 in0.0 mm
03:35 AM 55.0°F12.8°C 45.8°F7.7°C 71% 11.0 mph NE17.7 kmh NE 21.0 mph33.8 kmh 29.89 in1012.2 mb 0.00 in0.0 mm 0.00 in0.0 mm 0.00 in0.0 mm
03:40 AM 54.7°F12.6°C 46.2°F7.9°C 73% 11.1 mph NE17.9 kmh NE 19.0 mph30.6 kmh 29.89 in1012.2 mb 0.00 in0.0 mm 0.00 in0.0 mm 0.00 in0.0 mm
03:45 AM 54.3°F12.4°C 46.2°F7.9°C 74% 11.1 mph NE17.9 kmh NE 17.0 mph27.4 kmh 29.89 in1012.2 mb 0.00 in0.0 mm 0.00 in0.0 mm 0.00 in0.0 mm
03:50 AM 53.9°F12.2°C 46.5°F8.1°C 76% 11.0 mph NE17.7 kmh NE 18.0 mph29.0 kmh 29.89 in1012.2 mb 0.01 in0.3 mm 0.12 in3.0 mm 0.01 in0.3 mm
03:55 AM 53.8°F12.1°C 46.4°F8.0°C 76% 11.0 mph NE17.7 kmh NE 18.0 mph29.0 kmh 29.89 in1012.2 mb 0.01 in0.3 mm 0.00 in0.0 mm 0.01 in0.3 mm
04:00 AM 53.6°F12.0°C 46.6°F8.1°C 77% 10.6 mph NE17.1 kmh NE 18.0 mph29.0 kmh 29.89 in1012.2 mb 0.01 in0.3 mm 0.00 in0.0 mm 0.01 in0.3 mm
04:05 AM 53.6°F12.0°C 46.6°F8.1°C 77% 10.1 mph NE16.3 kmh NE 17.0 mph27.4 kmh 29.89 in1012.2 mb 0.01 in0.3 mm 0.00 in0.0 mm 0.01 in0.3 mm
04:10 AM 53.6°F12.0°C 46.6°F8.1°C 77% 10.0 mph NE16.1 kmh NE 17.0 mph27.4 kmh 29.89 in1012.2 mb 0.01 in0.3 mm 0.00 in0.0 mm 0.01 in0.3 mm
04:15 AM 53.5°F11.9°C 46.8°F8.2°C 78% 9.8 mph NE15.8 kmh NE 17.0 mph27.4 kmh 29.89 in1012.2 mb 0.01 in0.3 mm 0.00 in0.0 mm 0.01 in0.3 mm
04:20 AM 53.6°F12.0°C 46.9°F8.3°C 78% 9.9 mph NE15.9 kmh NE 20.0 mph32.2 kmh 29.89 in1012.2 mb 0.02 in0.5 mm 0.12 in3.0 mm 0.02 in0.5 mm
04:25 AM 53.6°F12.0°C 46.9°F8.3°C 78% 10.8 mph NE17.4 kmh NE 20.0 mph32.2 kmh 29.89 in1012.2 mb 0.02 in0.5 mm 0.00 in0.0 mm 0.02 in0.5 mm
04:30 AM 53.4°F11.9°C 46.7°F8.2°C 78% 11.5 mph NE18.5 kmh NE 20.0 mph32.2 kmh 29.89 in1012.2 mb 0.02 in0.5 mm 0.00 in0.0 mm 0.02 in0.5 mm
04:35 AM 53.3°F11.8°C 47.0°F8.3°C 79% 11.1 mph NE17.9 kmh NE 18.0 mph29.0 kmh 29.90 in1012.5 mb 0.02 in0.5 mm 0.00 in0.0 mm 0.02 in0.5 mm
04:40 AM 53.3°F11.8°C 47.0°F8.3°C 79% 9.8 mph NE15.8 kmh NE 21.0 mph33.8 kmh 29.89 in1012.2 mb 0.02 in0.5 mm 0.00 in0.0 mm 0.02 in0.5 mm
04:45 AM 53.2°F11.8°C 46.9°F8.3°C 79% 9.4 mph NE15.1 kmh NE 21.0 mph33.8 kmh 29.89 in1012.2 mb 0.02 in0.5 mm 0.00 in0.0 mm 0.02 in0.5 mm
04:50 AM 53.0°F11.7°C 47.0°F8.3°C 80% 10.2 mph NE16.4 kmh NE 19.0 mph30.6 kmh 29.89 in1012.2 mb 0.02 in0.5 mm 0.00 in0.0 mm 0.02 in0.5 mm
04:55 AM 52.8°F11.6°C 47.1°F8.4°C 81% 10.8 mph NE17.4 kmh NE 19.0 mph30.6 kmh 29.89 in1012.2 mb 0.02 in0.5 mm 0.00 in0.0 mm 0.02 in0.5 mm
05:00 AM 52.6°F11.4°C 47.3°F8.5°C 82% 11.4 mph NE18.3 kmh NE 19.0 mph30.6 kmh 29.89 in1012.2 mb 0.02 in0.5 mm 0.00 in0.0 mm 0.03 in0.8 mm
05:05 AM 52.6°F11.4°C 47.3°F8.5°C 82% 11.9 mph NE19.2 kmh NE 20.0 mph32.2 kmh 29.89 in1012.2 mb 0.02 in0.5 mm 0.00 in0.0 mm 0.03 in0.8 mm
05:10 AM 52.7°F11.5°C 47.4°F8.6°C 82% 12.0 mph NE19.3 kmh NE 20.0 mph32.2 kmh 29.88 in1011.9 mb 0.02 in0.5 mm 0.00 in0.0 mm 0.03 in0.8 mm
05:15 AM 52.7°F11.5°C 47.4°F8.6°C 82% 12.0 mph NE19.3 kmh NE 19.0 mph30.6 kmh 29.88 in1011.9 mb 0.02 in0.5 mm 0.00 in0.0 mm 0.03 in0.8 mm
05:20 AM 52.7°F11.5°C 47.4°F8.6°C 82% 12.1 mph NE19.5 kmh NE 20.0 mph32.2 kmh 29.89 in1012.2 mb 0.02 in0.5 mm 0.00 in0.0 mm 0.03 in0.8 mm
05:25 AM 52.6°F11.4°C 47.3°F8.5°C 82% 12.4 mph NE20.0 kmh NE 20.0 mph32.2 kmh 29.88 in1011.9 mb 0.02 in0.5 mm 0.00 in0.0 mm 0.04 in1.0 mm
05:30 AM 52.5°F11.4°C 47.5°F8.6°C 83% 12.4 mph NE20.0 kmh NE 18.0 mph29.0 kmh 29.88 in1011.9 mb 0.02 in0.5 mm 0.00 in0.0 mm 0.04 in1.0 mm
05:35 AM 52.5°F11.4°C 47.5°F8.6°C 83% 12.1 mph NE19.5 kmh NE 19.0 mph30.6 kmh 29.88 in1011.9 mb 0.02 in0.5 mm 0.00 in0.0 mm 0.04 in1.0 mm
05:40 AM 52.5°F11.4°C 47.5°F8.6°C 83% 11.9 mph NE19.2 kmh NE 19.0 mph30.6 kmh 29.88 in1011.9 mb 0.03 in0.8 mm 0.12 in3.0 mm 0.05 in1.3 mm
05:45 AM 52.3°F11.3°C 47.6°F8.7°C 84% 11.4 mph NE18.3 kmh NE 19.0 mph30.6 kmh 29.88 in1011.9 mb 0.02 in0.5 mm 0.00 in0.0 mm 0.05 in1.3 mm
05:50 AM 52.3°F11.3°C 47.6°F8.7°C 84% 10.5 mph NE16.9 kmh NE 17.0 mph27.4 kmh 29.88 in1011.9 mb 0.02 in0.5 mm 0.00 in0.0 mm 0.05 in1.3 mm
05:55 AM 52.3°F11.3°C 47.6°F8.7°C 84% 9.5 mph NE15.3 kmh NE 17.0 mph27.4 kmh 29.88 in1011.9 mb 0.03 in0.8 mm 0.12 in3.0 mm 0.06 in1.5 mm
06:00 AM 52.2°F11.2°C 47.5°F8.6°C 84% 9.0 mph NE14.5 kmh NE 16.0 mph25.7 kmh 29.88 in1011.9 mb 0.02 in0.5 mm 0.00 in0.0 mm 0.06 in1.5 mm
06:05 AM 52.3°F11.3°C 47.6°F8.7°C 84% 9.3 mph NE15.0 kmh NE 16.0 mph25.7 kmh 29.88 in1011.9 mb 0.03 in0.8 mm 0.12 in3.0 mm 0.06 in1.5 mm
06:10 AM 52.4°F11.3°C 47.7°F8.7°C 84% 9.9 mph NE15.9 kmh NE 20.0 mph32.2 kmh 29.88 in1011.9 mb 0.03 in0.8 mm 0.00 in0.0 mm 0.06 in1.5 mm
06:15 AM 52.5°F11.4°C 47.5°F8.6°C 83% 10.6 mph NE17.1 kmh NE 20.0 mph32.2 kmh 29.87 in1011.5 mb 0.03 in0.8 mm 0.00 in0.0 mm 0.06 in1.5 mm
06:20 AM 52.7°F11.5°C 47.7°F8.7°C 83% 11.5 mph NE18.5 kmh NE 19.0 mph30.6 kmh 29.87 in1011.5 mb 0.03 in0.8 mm 0.00 in0.0 mm 0.06 in1.5 mm
06:25 AM 52.6°F11.4°C 47.6°F8.7°C 83% 11.8 mph NE19.0 kmh NE 19.0 mph30.6 kmh 29.88 in1011.9 mb 0.02 in0.5 mm 0.00 in0.0 mm 0.06 in1.5 mm
06:30 AM 52.7°F11.5°C 47.7°F8.7°C 83% 11.2 mph NE18.0 kmh NE 20.0 mph32.2 kmh 29.88 in1011.9 mb 0.03 in0.8 mm 0.12 in3.0 mm 0.07 in1.8 mm
06:35 AM 52.8°F11.6°C 47.5°F8.6°C 82% 10.6 mph NE17.1 kmh NE 20.0 mph32.2 kmh 29.88 in1011.9 mb 0.03 in0.8 mm 0.00 in0.0 mm 0.07 in1.8 mm
06:40 AM 52.9°F11.6°C 47.6°F8.7°C 82% 10.8 mph NE17.4 kmh NE 19.0 mph30.6 kmh 29.88 in1011.9 mb 0.02 in0.5 mm 0.00 in0.0 mm 0.07 in1.8 mm
06:45 AM 52.9°F11.6°C 47.6°F8.7°C 82% 11.6 mph NE18.7 kmh NE 19.0 mph30.6 kmh 29.88 in1011.9 mb 0.02 in0.5 mm 0.00 in0.0 mm 0.07 in1.8 mm
06:50 AM 52.8°F11.6°C 47.5°F8.6°C 82% 12.2 mph NE19.6 kmh NE 19.0 mph30.6 kmh 29.87 in1011.5 mb 0.02 in0.5 mm 0.00 in0.0 mm 0.07 in1.8 mm
06:55 AM 52.6°F11.4°C 47.6°F8.7°C 83% 11.5 mph NE18.5 kmh NE 17.0 mph27.4 kmh 29.88 in1011.9 mb 0.02 in0.5 mm 0.00 in0.0 mm 0.07 in1.8 mm
07:00 AM 52.6°F11.4°C 47.6°F8.7°C 83% 8.6 mph NE13.8 kmh NE 11.0 mph17.7 kmh 29.88 in1011.9 mb 0.02 in0.5 mm 0.00 in0.0 mm 0.07 in1.8 mm
07:05 AM 52.6°F11.4°C 47.6°F8.7°C 83% 5.0 mph NE8.0 kmh NE 11.0 mph17.7 kmh 29.88 in1011.9 mb 0.01 in0.3 mm 0.00 in0.0 mm 0.07 in1.8 mm
07:10 AM 52.4°F11.3°C 47.7°F8.7°C 84% 2.5 mph NNE4.0 kmh NNE 4.0 mph6.4 kmh 29.88 in1011.9 mb 0.01 in0.3 mm 0.00 in0.0 mm 0.07 in1.8 mm
07:15 AM 52.2°F11.2°C 47.5°F8.6°C 84% 1.3 mph WSW2.1 kmh WSW 4.0 mph6.4 kmh 29.88 in1011.9 mb 0.01 in0.3 mm 0.00 in0.0 mm 0.07 in1.8 mm
07:20 AM 52.1°F11.2°C 47.7°F8.7°C 85% 0.8 mph SW1.3 kmh SW 2.0 mph3.2 kmh 29.88 in1011.9 mb 0.02 in0.5 mm 0.12 in3.0 mm 0.08 in2.0 mm
07:25 AM 51.9°F11.1°C 47.5°F8.6°C 85% 0.3 mph NE0.5 kmh NE 4.0 mph6.4 kmh 29.89 in1012.2 mb 0.02 in0.5 mm 0.00 in0.0 mm 0.08 in2.0 mm
07:30 AM 52.1°F11.2°C 47.7°F8.7°C 85% 0.4 mph NE0.6 kmh NE 5.0 mph8.0 kmh 29.88 in1011.9 mb 0.01 in0.3 mm 0.00 in0.0 mm 0.08 in2.0 mm
07:35 AM 52.4°F11.3°C 47.7°F8.7°C 84% 1.2 mph NE1.9 kmh NE 7.0 mph11.3 kmh 29.89 in1012.2 mb 0.01 in0.3 mm 0.00 in0.0 mm 0.08 in2.0 mm
07:40 AM 52.6°F11.4°C 47.6°F8.7°C 83% 1.8 mph NE2.9 kmh NE 7.0 mph11.3 kmh 29.89 in1012.2 mb 0.01 in0.3 mm 0.00 in0.0 mm 0.08 in2.0 mm
07:45 AM 52.8°F11.6°C 47.8°F8.8°C 83% 1.9 mph NE3.1 kmh NE 4.0 mph6.4 kmh 29.89 in1012.2 mb 0.01 in0.3 mm 0.00 in0.0 mm 0.08 in2.0 mm
07:50 AM 52.7°F11.5°C 47.7°F8.7°C 83% 1.4 mph NE2.3 kmh NE 7.0 mph11.3 kmh 29.89 in1012.2 mb 0.01 in0.3 mm 0.00 in0.0 mm 0.08 in2.0 mm
07:55 AM 52.5°F11.4°C 47.8°F8.8°C 84% 1.0 mph NE1.6 kmh NE 7.0 mph11.3 kmh 29.88 in1011.9 mb 0.01 in0.3 mm 0.00 in0.0 mm 0.08 in2.0 mm
08:00 AM 52.6°F11.4°C 47.6°F8.7°C 83% 1.0 mph NE1.6 kmh NE 9.0 mph14.5 kmh 29.88 in1011.9 mb 0.01 in0.3 mm 0.00 in0.0 mm 0.08 in2.0 mm
08:05 AM 53.0°F11.7°C 47.7°F8.7°C 82% 1.7 mph NE2.7 kmh NE 9.0 mph14.5 kmh 29.88 in1011.9 mb 0.01 in0.3 mm 0.00 in0.0 mm 0.08 in2.0 mm
08:10 AM 53.3°F11.8°C 47.6°F8.7°C 81% 2.7 mph NE4.3 kmh NE 9.0 mph14.5 kmh 29.89 in1012.2 mb 0.01 in0.3 mm 0.00 in0.0 mm 0.08 in2.0 mm
08:15 AM 53.2°F11.8°C 47.5°F8.6°C 81% 2.6 mph NE4.2 kmh NE 7.0 mph11.3 kmh 29.88 in1011.9 mb 0.01 in0.3 mm 0.00 in0.0 mm 0.08 in2.0 mm
08:20 AM 53.2°F11.8°C 47.5°F8.6°C 81% 1.6 mph NE2.6 kmh NE 7.0 mph11.3 kmh 29.89 in1012.2 mb 0.00 in0.0 mm 0.00 in0.0 mm 0.08 in2.0 mm
08:25 AM 53.4°F11.9°C 47.7°F8.7°C 81% 1.0 mph NE1.6 kmh NE 7.0 mph11.3 kmh 29.89 in1012.2 mb 0.00 in0.0 mm 0.00 in0.0 mm 0.08 in2.0 mm
08:30 AM 53.3°F11.8°C 47.6°F8.7°C 81% 1.2 mph NE1.9 kmh NE 6.0 mph9.7 kmh 29.89 in1012.2 mb 0.00 in0.0 mm 0.00 in0.0 mm 0.08 in2.0 mm
08:35 AM 53.2°F11.8°C 47.5°F8.6°C 81% 1.2 mph NE1.9 kmh NE 5.0 mph8.0 kmh 29.89 in1012.2 mb 0.00 in0.0 mm 0.00 in0.0 mm 0.08 in2.0 mm
08:40 AM 53.1°F11.7°C 47.7°F8.7°C 82% 0.6 mph NE1.0 kmh NE 4.0 mph6.4 kmh 29.89 in1012.2 mb 0.01 in0.3 mm 0.12 in3.0 mm 0.09 in2.3 mm
08:45 AM 53.0°F11.7°C 47.7°F8.7°C 82% 0.1 mph NE0.2 kmh NE 4.0 mph6.4 kmh 29.88 in1011.9 mb 0.01 in0.3 mm 0.00 in0.0 mm 0.09 in2.3 mm
08:50 AM 52.9°F11.6°C 47.9°F8.8°C 83% Calm Calm 7.0 mph11.3 kmh 29.89 in1012.2 mb 0.01 in0.3 mm 0.00 in0.0 mm 0.09 in2.3 mm
08:55 AM 52.9°F11.6°C 47.9°F8.8°C 83% 0.7 mph NE1.1 kmh NE 7.0 mph11.3 kmh 29.89 in1012.2 mb 0.01 in0.3 mm 0.00 in0.0 mm 0.09 in2.3 mm
09:00 AM 52.8°F11.6°C 48.1°F8.9°C 84% 1.9 mph NE3.1 kmh NE 6.0 mph9.7 kmh 29.89 in1012.2 mb 0.02 in0.5 mm 0.01 in0.3 mm 0.09 in2.3 mm
09:05 AM 52.8°F11.6°C 48.1°F8.9°C 84% 2.7 mph NE4.3 kmh NE 6.0 mph9.7 kmh 29.89 in1012.2 mb 0.02 in0.5 mm 0.00 in0.0 mm 0.09 in2.3 mm
09:10 AM 52.9°F11.6°C 47.9°F8.8°C 83% 3.0 mph NE4.8 kmh NE 10.0 mph16.1 kmh 29.89 in1012.2 mb 0.02 in0.5 mm 0.00 in0.0 mm 0.09 in2.3 mm
09:15 AM 53.2°F11.8°C 48.2°F9.0°C 83% 3.5 mph NE5.6 kmh NE 10.0 mph16.1 kmh 29.88 in1011.9 mb 0.02 in0.5 mm 0.00 in0.0 mm 0.09 in2.3 mm
09:20 AM 53.2°F11.8°C 48.2°F9.0°C 83% 4.5 mph NE7.2 kmh NE 10.0 mph16.1 kmh 29.88 in1011.9 mb 0.02 in0.5 mm 0.00 in0.0 mm 0.09 in2.3 mm
09:25 AM 53.6°F12.0°C 48.2°F9.0°C 82% 5.0 mph NE8.0 kmh NE 10.0 mph16.1 kmh 29.89 in1012.2 mb 0.02 in0.5 mm 0.00 in0.0 mm 0.09 in2.3 mm
09:30 AM 53.9°F12.2°C 47.9°F8.8°C 80% 5.0 mph NE8.0 kmh NE 10.0 mph16.1 kmh 29.88 in1011.9 mb 0.02 in0.5 mm 0.00 in0.0 mm 0.09 in2.3 mm
09:35 AM 53.7°F12.1°C 48.0°F8.9°C 81% 5.0 mph NE8.0 kmh NE 9.0 mph14.5 kmh 29.89 in1012.2 mb 0.02 in0.5 mm 0.00 in0.0 mm 0.09 in2.3 mm
09:40 AM 53.8°F12.1°C 48.1°F8.9°C 81% 5.0 mph NE8.0 kmh NE 8.0 mph12.9 kmh 29.88 in1011.9 mb 0.02 in0.5 mm 0.00 in0.0 mm 0.10 in2.5 mm
09:45 AM 53.7°F12.1°C 48.3°F9.1°C 82% 4.8 mph NE7.7 kmh NE 8.0 mph12.9 kmh 29.88 in1011.9 mb 0.02 in0.5 mm 0.00 in0.0 mm 0.10 in2.5 mm
09:50 AM 53.6°F12.0°C 48.6°F9.2°C 83% 4.0 mph NE6.4 kmh NE 6.0 mph9.7 kmh 29.88 in1011.9 mb 0.02 in0.5 mm 0.00 in0.0 mm 0.10 in2.5 mm
09:55 AM 53.6°F12.0°C 48.6°F9.2°C 83% 2.9 mph NE4.7 kmh NE 4.0 mph6.4 kmh 29.88 in1011.9 mb 0.02 in0.5 mm 0.00 in0.0 mm 0.10 in2.5 mm
10:00 AM 53.6°F12.0°C 48.6°F9.2°C 83% 2.4 mph NE3.9 kmh NE 5.0 mph8.0 kmh 29.88 in1011.9 mb 0.01 in0.3 mm 0.00 in0.0 mm 0.10 in2.5 mm
10:05 AM 53.8°F12.1°C 48.4°F9.1°C 82% 2.7 mph NE4.3 kmh NE 11.0 mph17.7 kmh 29.88 in1011.9 mb 0.01 in0.3 mm 0.00 in0.0 mm 0.10 in2.5 mm
10:10 AM 53.8°F12.1°C 48.4°F9.1°C 82% 3.6 mph NE5.8 kmh NE 11.0 mph17.7 kmh 29.88 in1011.9 mb 0.01 in0.3 mm 0.00 in0.0 mm 0.10 in2.5 mm
10:15 AM 53.9°F12.2°C 48.2°F9.0°C 81% 4.6 mph NE7.4 kmh NE 10.0 mph16.1 kmh 29.88 in1011.9 mb 0.01 in0.3 mm 0.00 in0.0 mm 0.10 in2.5 mm
10:20 AM 54.1°F12.3°C 48.4°F9.1°C 81% 4.7 mph NE7.6 kmh NE 10.0 mph16.1 kmh 29.88 in1011.9 mb 0.01 in0.3 mm 0.00 in0.0 mm 0.10 in2.5 mm
10:25 AM 54.4°F12.4°C 48.7°F9.3°C 81% 4.5 mph NE7.2 kmh NE 9.0 mph14.5 kmh 29.88 in1011.9 mb 0.01 in0.3 mm 0.00 in0.0 mm 0.10 in2.5 mm
10:30 AM 54.6°F12.6°C 48.6°F9.2°C 80% 4.6 mph NE7.4 kmh NE 9.0 mph14.5 kmh 29.88 in1011.9 mb 0.01 in0.3 mm 0.00 in0.0 mm 0.10 in2.5 mm
10:35 AM 54.5°F12.5°C 48.8°F9.3°C 81% 4.4 mph NE7.1 kmh NE 9.0 mph14.5 kmh 29.87 in1011.5 mb 0.01 in0.3 mm 0.00 in0.0 mm 0.10 in2.5 mm
10:40 AM 54.4°F12.4°C 49.0°F9.4°C 82% 3.8 mph NE6.1 kmh NE 7.0 mph11.3 kmh 29.88 in1011.9 mb 0.00 in0.0 mm 0.00 in0.0 mm 0.10 in2.5 mm
10:45 AM 54.5°F12.5°C 49.1°F9.5°C 82% 2.8 mph NE4.5 kmh NE 5.0 mph8.0 kmh 29.88 in1011.9 mb 0.01 in0.3 mm 0.12 in3.0 mm 0.11 in2.8 mm
10:50 AM 54.6°F12.6°C 49.5°F9.7°C 83% 1.6 mph NE2.6 kmh NE 2.0 mph3.2 kmh 29.88 in1011.9 mb 0.01 in0.3 mm 0.00 in0.0 mm 0.11 in2.8 mm
10:55 AM 54.7°F12.6°C 49.3°F9.6°C 82% 0.9 mph NNE1.4 kmh NNE 2.0 mph3.2 kmh 29.88 in1011.9 mb 0.01 in0.3 mm 0.00 in0.0 mm 0.11 in2.8 mm
11:00 AM 54.9°F12.7°C 49.8°F9.9°C 83% 0.4 mph 0.6 kmh -- 29.87 in1011.5 mb 0.01 in0.3 mm 0.00 in0.0 mm 0.11 in2.8 mm
11:05 AM 54.9°F12.7°C 49.5°F9.7°C 82% Calm Calm -- 29.88 in1011.9 mb 0.01 in0.3 mm 0.00 in0.0 mm 0.11 in2.8 mm
11:10 AM 54.9°F12.7°C 49.8°F9.9°C 83% Calm Calm -- 29.87 in1011.5 mb 0.01 in0.3 mm 0.00 in0.0 mm 0.11 in2.8 mm
11:15 AM 55.0°F12.8°C 49.9°F9.9°C 83% Calm Calm -- 29.86 in1011.2 mb 0.01 in0.3 mm 0.00 in0.0 mm 0.11 in2.8 mm
11:20 AM 55.3°F12.9°C 50.5°F10.3°C 84% Calm Calm -- 29.87 in1011.5 mb 0.02 in0.5 mm 0.12 in3.0 mm 0.12 in3.0 mm
11:25 AM 55.5°F13.1°C 50.7°F10.4°C 84% Calm Calm -- 29.86 in1011.2 mb 0.02 in0.5 mm 0.00 in0.0 mm 0.12 in3.0 mm
11:30 AM 55.8°F13.2°C 51.0°F10.6°C 84% Calm Calm -- 29.86 in1011.2 mb 0.02 in0.5 mm 0.00 in0.0 mm 0.12 in3.0 mm
11:35 AM 55.7°F13.2°C 50.6°F10.3°C 83% Calm Calm -- 29.86 in1011.2 mb 0.02 in0.5 mm 0.00 in0.0 mm 0.12 in3.0 mm
11:40 AM 55.7°F13.2°C 50.6°F10.3°C 83% Calm Calm -- 29.86 in1011.2 mb 0.02 in0.5 mm 0.00 in0.0 mm 0.12 in3.0 mm
11:45 AM 55.8°F13.2°C 50.7°F10.4°C 83% Calm Calm -- 29.85 in1010.8 mb 0.01 in0.3 mm 0.00 in0.0 mm 0.12 in3.0 mm
11:50 AM 55.8°F13.2°C 50.7°F10.4°C 83% Calm Calm -- 29.86 in1011.2 mb 0.01 in0.3 mm 0.00 in0.0 mm 0.12 in3.0 mm
11:55 AM 55.8°F13.2°C 50.7°F10.4°C 83% Calm Calm -- 29.85 in1010.8 mb 0.01 in0.3 mm 0.00 in0.0 mm 0.12 in3.0 mm
12:00 PM 55.8°F13.2°C 50.4°F10.2°C 82% Calm Calm -- 29.85 in1010.8 mb 0.01 in0.3 mm 0.00 in0.0 mm 0.12 in3.0 mm
12:05 PM 55.8°F13.2°C 50.4°F10.2°C 82% Calm Calm -- 29.85 in1010.8 mb 0.01 in0.3 mm 0.00 in0.0 mm 0.12 in3.0 mm
12:10 PM 55.7°F13.2°C 50.0°F10.0°C 81% 0.2 mph NE0.3 kmh NE 4.0 mph6.4 kmh 29.85 in1010.8 mb 0.01 in0.3 mm 0.00 in0.0 mm 0.12 in3.0 mm
12:15 PM 55.9°F13.3°C 50.5°F10.3°C 82% 0.7 mph NE1.1 kmh NE 4.0 mph6.4 kmh 29.84 in1010.5 mb 0.01 in0.3 mm 0.00 in0.0 mm 0.12 in3.0 mm
12:20 PM 56.1°F13.4°C 50.7°F10.4°C 82% 0.7 mph 1.1 kmh -- 29.84 in1010.5 mb 0.00 in0.0 mm 0.00 in0.0 mm 0.12 in3.0 mm
12:25 PM 56.3°F13.5°C 50.5°F10.3°C 81% 0.2 mph 0.3 kmh -- 29.84 in1010.5 mb 0.00 in0.0 mm 0.00 in0.0 mm 0.12 in3.0 mm
12:30 PM 56.7°F13.7°C 50.6°F10.3°C 80% Calm Calm -- 29.84 in1010.5 mb 0.00 in0.0 mm 0.00 in0.0 mm 0.12 in3.0 mm
12:35 PM 57.3°F14.1°C 50.5°F10.3°C 78% 0.2 mph NE0.3 kmh NE 7.0 mph11.3 kmh 29.84 in1010.5 mb 0.00 in0.0 mm 0.00 in0.0 mm 0.12 in3.0 mm
12:40 PM 57.6°F14.2°C 50.4°F10.2°C 77% 1.3 mph NE2.1 kmh NE 7.0 mph11.3 kmh 29.83 in1010.2 mb 0.00 in0.0 mm 0.00 in0.0 mm 0.12 in3.0 mm
12:45 PM 58.0°F14.4°C 50.8°F10.4°C 77% 3.0 mph NE4.8 kmh NE 7.0 mph11.3 kmh 29.83 in1010.2 mb 0.00 in0.0 mm 0.00 in0.0 mm 0.12 in3.0 mm
12:50 PM 58.1°F14.5°C 50.6°F10.3°C 76% 3.9 mph NE6.3 kmh NE 7.0 mph11.3 kmh 29.82 in1009.8 mb 0.00 in0.0 mm 0.00 in0.0 mm 0.12 in3.0 mm
12:55 PM 58.2°F14.6°C 50.3°F10.2°C 75% 4.0 mph NE6.4 kmh NE 8.0 mph12.9 kmh 29.82 in1009.8 mb 0.00 in0.0 mm 0.00 in0.0 mm 0.12 in3.0 mm
01:00 PM 58.4°F14.7°C 50.5°F10.3°C 75% 3.9 mph NE6.3 kmh NE 8.0 mph12.9 kmh 29.82 in1009.8 mb 0.00 in0.0 mm 0.00 in0.0 mm 0.12 in3.0 mm
01:05 PM 58.5°F14.7°C 50.6°F10.3°C 75% 3.4 mph NE5.5 kmh NE 6.0 mph9.7 kmh 29.82 in1009.8 mb 0.00 in0.0 mm 0.00 in0.0 mm 0.12 in3.0 mm
01:10 PM 58.6°F14.8°C 50.3°F10.2°C 74% 2.5 mph NE4.0 kmh NE 5.0 mph8.0 kmh 29.82 in1009.8 mb 0.00 in0.0 mm 0.00 in0.0 mm 0.12 in3.0 mm
01:15 PM 58.6°F14.8°C 50.3°F10.2°C 74% 2.1 mph NE3.4 kmh NE 5.0 mph8.0 kmh 29.81 in1009.5 mb 0.00 in0.0 mm 0.00 in0.0 mm 0.12 in3.0 mm
01:20 PM 58.7°F14.8°C 50.1°F10.1°C 73% 2.6 mph NE4.2 kmh NE 5.0 mph8.0 kmh 29.81 in1009.5 mb 0.00 in0.0 mm 0.00 in0.0 mm 0.12 in3.0 mm
01:25 PM 58.8°F14.9°C 50.5°F10.3°C 74% 2.6 mph NE4.2 kmh NE 5.0 mph8.0 kmh 29.81 in1009.5 mb 0.00 in0.0 mm 0.00 in0.0 mm 0.12 in3.0 mm
01:30 PM 58.9°F14.9°C 51.0°F10.6°C 75% 2.0 mph NE3.2 kmh NE 5.0 mph8.0 kmh 29.80 in1009.1 mb 0.00 in0.0 mm 0.00 in0.0 mm 0.12 in3.0 mm
01:35 PM 58.5°F14.7°C 50.6°F10.3°C 75% 1.5 mph NE2.4 kmh NE 5.0 mph8.0 kmh 29.80 in1009.1 mb 0.00 in0.0 mm 0.00 in0.0 mm 0.12 in3.0 mm
01:40 PM 58.4°F14.7°C 50.9°F10.5°C 76% 1.6 mph NE2.6 kmh NE 5.0 mph8.0 kmh 29.80 in1009.1 mb 0.00 in0.0 mm 0.00 in0.0 mm 0.12 in3.0 mm
01:45 PM 58.3°F14.6°C 51.1°F10.6°C 77% 2.0 mph NE3.2 kmh NE 7.0 mph11.3 kmh 29.79 in1008.8 mb 0.00 in0.0 mm 0.00 in0.0 mm 0.12 in3.0 mm
01:50 PM 58.4°F14.7°C 50.9°F10.5°C 76% 2.3 mph NE3.7 kmh NE 7.0 mph11.3 kmh 29.79 in1008.8 mb 0.00 in0.0 mm 0.00 in0.0 mm 0.12 in3.0 mm
01:55 PM 58.8°F14.9°C 51.2°F10.7°C 76% 2.1 mph NE3.4 kmh NE 4.0 mph6.4 kmh 29.79 in1008.8 mb 0.00 in0.0 mm 0.00 in0.0 mm 0.12 in3.0 mm
02:00 PM 58.8°F14.9°C 51.2°F10.7°C 76% 0.9 mph 1.4 kmh -- 29.79 in1008.8 mb 0.00 in0.0 mm 0.00 in0.0 mm 0.12 in3.0 mm
02:05 PM 59.0°F15.0°C 50.7°F10.4°C 74% 0.1 mph NE0.2 kmh NE 7.0 mph11.3 kmh 29.79 in1008.8 mb 0.00 in0.0 mm 0.00 in0.0 mm 0.12 in3.0 mm
02:10 PM 59.1°F15.1°C 50.5°F10.3°C 73% 0.5 mph NE0.8 kmh NE 7.0 mph11.3 kmh 29.79 in1008.8 mb 0.00 in0.0 mm 0.00 in0.0 mm 0.12 in3.0 mm
02:15 PM 59.1°F15.1°C 50.5°F10.3°C 73% 1.3 mph NE2.1 kmh NE 5.0 mph8.0 kmh 29.79 in1008.8 mb 0.00 in0.0 mm 0.00 in0.0 mm 0.12 in3.0 mm
02:20 PM 59.1°F15.1°C 50.5°F10.3°C 73% 2.0 mph NE3.2 kmh NE 7.0 mph11.3 kmh 29.79 in1008.8 mb 0.00 in0.0 mm 0.00 in0.0 mm 0.12 in3.0 mm
02:25 PM 59.0°F15.0°C 50.4°F10.2°C 73% 2.7 mph NE4.3 kmh NE 7.0 mph11.3 kmh 29.79 in1008.8 mb 0.00 in0.0 mm 0.00 in0.0 mm 0.12 in3.0 mm
02:30 PM 58.9°F14.9°C 50.6°F10.3°C 74% 3.0 mph NE4.8 kmh NE 8.0 mph12.9 kmh 29.79 in1008.8 mb 0.00 in0.0 mm 0.00 in0.0 mm 0.12 in3.0 mm
02:35 PM 58.8°F14.9°C 50.5°F10.3°C 74% 3.0 mph NE4.8 kmh NE 8.0 mph12.9 kmh 29.79 in1008.8 mb 0.00 in0.0 mm 0.00 in0.0 mm 0.12 in3.0 mm
02:40 PM 58.7°F14.8°C 50.8°F10.4°C 75% 2.8 mph NE4.5 kmh NE 6.0 mph9.7 kmh 29.80 in1009.1 mb 0.00 in0.0 mm 0.00 in0.0 mm 0.12 in3.0 mm
02:45 PM 58.6°F14.8°C 50.7°F10.4°C 75% 1.8 mph NE2.9 kmh NE 2.0 mph3.2 kmh 29.80 in1009.1 mb 0.00 in0.0 mm 0.00 in0.0 mm 0.12 in3.0 mm
02:50 PM 58.4°F14.7°C 50.9°F10.5°C 76% 0.5 mph 0.8 kmh -- 29.80 in1009.1 mb 0.00 in0.0 mm 0.00 in0.0 mm 0.12 in3.0 mm
02:55 PM 58.3°F14.6°C 50.8°F10.4°C 76% Calm Calm -- 29.80 in1009.1 mb 0.00 in0.0 mm 0.00 in0.0 mm 0.12 in3.0 mm
03:00 PM 58.3°F14.6°C 50.8°F10.4°C 76% Calm Calm -- 29.80 in1009.1 mb 0.00 in0.0 mm 0.00 in0.0 mm 0.12 in3.0 mm
03:05 PM 58.2°F14.6°C 50.7°F10.4°C 76% Calm Calm -- 29.80 in1009.1 mb 0.00 in0.0 mm 0.00 in0.0 mm 0.12 in3.0 mm
03:10 PM 58.2°F14.6°C 51.0°F10.6°C 77% Calm Calm -- 29.80 in1009.1 mb 0.00 in0.0 mm 0.00 in0.0 mm 0.12 in3.0 mm
03:15 PM 58.2°F14.6°C 51.0°F10.6°C 77% Calm Calm -- 29.80 in1009.1 mb 0.00 in0.0 mm 0.00 in0.0 mm 0.12 in3.0 mm
03:20 PM 58.2°F14.6°C 50.7°F10.4°C 76% Calm Calm -- 29.80 in1009.1 mb 0.00 in0.0 mm 0.00 in0.0 mm 0.12 in3.0 mm
03:25 PM 58.2°F14.6°C 51.0°F10.6°C 77% Calm Calm -- 29.81 in1009.5 mb 0.00 in0.0 mm 0.00 in0.0 mm 0.12 in3.0 mm
03:30 PM 58.3°F14.6°C 51.5°F10.8°C 78% Calm Calm -- 29.80 in1009.1 mb 0.00 in0.0 mm 0.00 in0.0 mm 0.12 in3.0 mm
03:35 PM 58.1°F14.5°C 51.3°F10.7°C 78% Calm Calm -- 29.80 in1009.1 mb 0.00 in0.0 mm 0.00 in0.0 mm 0.12 in3.0 mm
03:40 PM 58.1°F14.5°C 50.9°F10.5°C 77% Calm Calm -- 29.80 in1009.1 mb 0.00 in0.0 mm 0.00 in0.0 mm 0.12 in3.0 mm
03:45 PM 57.9°F14.4°C 51.1°F10.6°C 78% Calm Calm -- 29.80 in1009.1 mb 0.01 in0.3 mm 0.12 in3.0 mm 0.13 in3.3 mm
03:50 PM 57.6°F14.2°C 51.5°F10.8°C 80% Calm Calm -- 29.79 in1008.8 mb 0.01 in0.3 mm 0.00 in0.0 mm 0.13 in3.3 mm
03:55 PM 57.2°F14.0°C 51.4°F10.8°C 81% 0.1 mph NE0.2 kmh NE 4.0 mph6.4 kmh 29.79 in1008.8 mb 0.01 in0.3 mm 0.00 in0.0 mm 0.13 in3.3 mm
04:00 PM 56.8°F13.8°C 51.4°F10.8°C 82% 0.8 mph NE1.3 kmh NE 6.0 mph9.7 kmh 29.79 in1008.8 mb 0.01 in0.3 mm 0.00 in0.0 mm 0.13 in3.3 mm
04:05 PM 56.5°F13.6°C 51.4°F10.8°C 83% 2.1 mph NE3.4 kmh NE 7.0 mph11.3 kmh 29.79 in1008.8 mb 0.01 in0.3 mm 0.00 in0.0 mm 0.13 in3.3 mm
04:10 PM 56.4°F13.6°C 51.6°F10.9°C 84% 3.4 mph NE5.5 kmh NE 7.0 mph11.3 kmh 29.79 in1008.8 mb 0.01 in0.3 mm 0.00 in0.0 mm 0.13 in3.3 mm
04:15 PM 56.3°F13.5°C 51.8°F11.0°C 85% 4.0 mph NE6.4 kmh NE 8.0 mph12.9 kmh 29.78 in1008.5 mb 0.01 in0.3 mm 0.00 in0.0 mm 0.13 in3.3 mm
04:20 PM 56.2°F13.4°C 51.7°F10.9°C 85% 4.1 mph NE6.6 kmh NE 8.0 mph12.9 kmh 29.78 in1008.5 mb 0.01 in0.3 mm 0.00 in0.0 mm 0.13 in3.3 mm
04:25 PM 56.2°F13.4°C 51.4°F10.8°C 84% 4.2 mph NE6.8 kmh NE 7.0 mph11.3 kmh 29.78 in1008.5 mb 0.01 in0.3 mm 0.00 in0.0 mm 0.13 in3.3 mm
04:30 PM 56.1°F13.4°C 51.3°F10.7°C 84% 3.6 mph NE5.8 kmh NE 8.0 mph12.9 kmh 29.77 in1008.1 mb 0.01 in0.3 mm 0.00 in0.0 mm 0.13 in3.3 mm
04:35 PM 56.1°F13.4°C 51.7°F10.9°C 85% 3.0 mph NE4.8 kmh NE 8.0 mph12.9 kmh 29.77 in1008.1 mb 0.01 in0.3 mm 0.00 in0.0 mm 0.13 in3.3 mm
04:40 PM 56.2°F13.4°C 51.4°F10.8°C 84% 2.6 mph NE4.2 kmh NE 6.0 mph9.7 kmh 29.77 in1008.1 mb 0.01 in0.3 mm 0.00 in0.0 mm 0.13 in3.3 mm
04:45 PM 56.2°F13.4°C 51.4°F10.8°C 84% 2.2 mph NE3.5 kmh NE 6.0 mph9.7 kmh 29.77 in1008.1 mb 0.00 in0.0 mm 0.00 in0.0 mm 0.13 in3.3 mm
04:50 PM 56.1°F13.4°C 51.3°F10.7°C 84% 2.9 mph NE4.7 kmh NE 6.0 mph9.7 kmh 29.77 in1008.1 mb 0.00 in0.0 mm 0.00 in0.0 mm 0.13 in3.3 mm
04:55 PM 56.0°F13.3°C 51.2°F10.7°C 84% 3.3 mph NE5.3 kmh NE 6.0 mph9.7 kmh 29.77 in1008.1 mb 0.00 in0.0 mm 0.00 in0.0 mm 0.13 in3.3 mm
05:00 PM 56.1°F13.4°C 51.3°F10.7°C 84% 2.9 mph NE4.7 kmh NE 5.0 mph8.0 kmh 29.77 in1008.1 mb 0.00 in0.0 mm 0.00 in0.0 mm 0.13 in3.3 mm
05:05 PM 56.0°F13.3°C 51.2°F10.7°C 84% 2.9 mph NE4.7 kmh NE 6.0 mph9.7 kmh 29.77 in1008.1 mb 0.00 in0.0 mm 0.00 in0.0 mm 0.13 in3.3 mm
05:10 PM 55.8°F13.2°C 51.0°F10.6°C 84% 3.0 mph NE4.8 kmh NE 6.0 mph9.7 kmh 29.77 in1008.1 mb 0.00 in0.0 mm 0.00 in0.0 mm 0.13 in3.3 mm
05:15 PM 55.6°F13.1°C 51.2°F10.7°C 85% 2.8 mph NE4.5 kmh NE 6.0 mph9.7 kmh 29.78 in1008.5 mb 0.00 in0.0 mm 0.00 in0.0 mm 0.13 in3.3 mm
05:20 PM 55.6°F13.1°C 50.8°F10.4°C 84% 2.2 mph NE3.5 kmh NE 6.0 mph9.7 kmh 29.77 in1008.1 mb 0.00 in0.0 mm 0.00 in0.0 mm 0.13 in3.3 mm
05:25 PM 55.4°F13.0°C 51.0°F10.6°C 85% 2.0 mph NE3.2 kmh NE 6.0 mph9.7 kmh 29.77 in1008.1 mb 0.00 in0.0 mm 0.00 in0.0 mm 0.13 in3.3 mm
05:30 PM 55.3°F12.9°C 50.9°F10.5°C 85% 2.9 mph NE4.7 kmh NE 8.0 mph12.9 kmh 29.77 in1008.1 mb 0.00 in0.0 mm 0.00 in0.0 mm 0.13 in3.3 mm
05:35 PM 55.3°F12.9°C 50.9°F10.5°C 85% 3.8 mph NE6.1 kmh NE 8.0 mph12.9 kmh 29.77 in1008.1 mb 0.00 in0.0 mm 0.00 in0.0 mm 0.13 in3.3 mm
05:40 PM 55.5°F13.1°C 51.1°F10.6°C 85% 4.0 mph NE6.4 kmh NE 8.0 mph12.9 kmh 29.77 in1008.1 mb 0.00 in0.0 mm 0.00 in0.0 mm 0.13 in3.3 mm
05:45 PM 55.5°F13.1°C 50.7°F10.4°C 84% 3.5 mph NE5.6 kmh NE 6.0 mph9.7 kmh 29.77 in1008.1 mb 0.00 in0.0 mm 0.00 in0.0 mm 0.13 in3.3 mm
05:50 PM 55.4°F13.0°C 50.6°F10.3°C 84% 3.0 mph NE4.8 kmh NE 6.0 mph9.7 kmh 29.76 in1007.8 mb 0.00 in0.0 mm 0.00 in0.0 mm 0.13 in3.3 mm
05:55 PM 55.3°F12.9°C 50.9°F10.5°C 85% 2.7 mph NE4.3 kmh NE 5.0 mph8.0 kmh 29.76 in1007.8 mb 0.00 in0.0 mm 0.00 in0.0 mm 0.13 in3.3 mm
06:00 PM 55.4°F13.0°C 50.6°F10.3°C 84% 2.5 mph NE4.0 kmh NE 5.0 mph8.0 kmh 29.76 in1007.8 mb 0.00 in0.0 mm 0.00 in0.0 mm 0.13 in3.3 mm
06:05 PM 55.5°F13.1°C 50.7°F10.4°C 84% 2.6 mph NE4.2 kmh NE 6.0 mph9.7 kmh 29.76 in1007.8 mb 0.00 in0.0 mm 0.00 in0.0 mm 0.13 in3.3 mm
06:10 PM 55.7°F13.2°C 50.6°F10.3°C 83% 2.5 mph NE4.0 kmh NE 6.0 mph9.7 kmh 29.76 in1007.8 mb 0.00 in0.0 mm 0.00 in0.0 mm 0.13 in3.3 mm
06:15 PM 55.6°F13.1°C 50.5°F10.3°C 83% 2.7 mph NE4.3 kmh NE 6.0 mph9.7 kmh 29.75 in1007.5 mb 0.00 in0.0 mm 0.00 in0.0 mm 0.13 in3.3 mm
06:20 PM 55.4°F13.0°C 50.3°F10.2°C 83% 2.8 mph NE4.5 kmh NE 5.0 mph8.0 kmh 29.76 in1007.8 mb 0.00 in0.0 mm 0.00 in0.0 mm 0.13 in3.3 mm
06:25 PM 55.5°F13.1°C 50.4°F10.2°C 83% 2.3 mph NE3.7 kmh NE 5.0 mph8.0 kmh 29.76 in1007.8 mb 0.00 in0.0 mm 0.00 in0.0 mm 0.13 in3.3 mm
06:30 PM 55.6°F13.1°C 50.5°F10.3°C 83% 1.5 mph NE2.4 kmh NE 5.0 mph8.0 kmh 29.76 in1007.8 mb 0.00 in0.0 mm 0.00 in0.0 mm 0.13 in3.3 mm
06:35 PM 55.5°F13.1°C 50.4°F10.2°C 83% 1.0 mph NE1.6 kmh NE 5.0 mph8.0 kmh 29.75 in1007.5 mb 0.00 in0.0 mm 0.00 in0.0 mm 0.13 in3.3 mm
06:40 PM 55.3°F12.9°C 50.2°F10.1°C 83% 0.7 mph 1.1 kmh -- 29.76 in1007.8 mb 0.00 in0.0 mm 0.00 in0.0 mm 0.13 in3.3 mm
06:45 PM 55.2°F12.9°C 50.4°F10.2°C 84% 0.2 mph 0.3 kmh -- 29.75 in1007.5 mb 0.00 in0.0 mm 0.00 in0.0 mm 0.13 in3.3 mm
06:50 PM 55.3°F12.9°C 50.5°F10.3°C 84% Calm Calm -- 29.75 in1007.5 mb 0.00 in0.0 mm 0.00 in0.0 mm 0.13 in3.3 mm
06:55 PM 55.3°F12.9°C 50.5°F10.3°C 84% Calm Calm -- 29.75 in1007.5 mb 0.00 in0.0 mm 0.00 in0.0 mm 0.13 in3.3 mm
07:00 PM 55.3°F12.9°C 50.2°F10.1°C 83% Calm Calm -- 29.75 in1007.5 mb 0.00 in0.0 mm 0.00 in0.0 mm 0.13 in3.3 mm
07:05 PM 55.1°F12.8°C 50.4°F10.2°C 84% Calm Calm -- 29.75 in1007.5 mb 0.00 in0.0 mm 0.00 in0.0 mm 0.13 in3.3 mm
07:10 PM 55.1°F12.8°C 50.4°F10.2°C 84% Calm Calm -- 29.75 in1007.5 mb 0.00 in0.0 mm 0.00 in0.0 mm 0.13 in3.3 mm
07:15 PM 55.2°F12.9°C 50.4°F10.2°C 84% Calm Calm -- 29.75 in1007.5 mb 0.00 in0.0 mm 0.00 in0.0 mm 0.13 in3.3 mm
07:20 PM 55.3°F12.9°C 50.2°F10.1°C 83% Calm Calm -- 29.75 in1007.5 mb 0.00 in0.0 mm 0.00 in0.0 mm 0.13 in3.3 mm
07:25 PM 55.3°F12.9°C 50.2°F10.1°C 83% Calm Calm -- 29.75 in1007.5 mb 0.00 in0.0 mm 0.00 in0.0 mm 0.13 in3.3 mm
07:30 PM 55.4°F13.0°C 50.3°F10.2°C 83% Calm Calm -- 29.75 in1007.5 mb 0.00 in0.0 mm 0.00 in0.0 mm 0.13 in3.3 mm
07:35 PM 55.3°F12.9°C 50.2°F10.1°C 83% Calm Calm -- 29.75 in1007.5 mb 0.00 in0.0 mm 0.00 in0.0 mm 0.13 in3.3 mm
07:40 PM 55.2°F12.9°C 50.1°F10.1°C 83% Calm Calm -- 29.75 in1007.5 mb 0.00 in0.0 mm 0.00 in0.0 mm 0.13 in3.3 mm
07:45 PM 55.1°F12.8°C 50.4°F10.2°C 84% Calm Calm -- 29.75 in1007.5 mb 0.00 in0.0 mm 0.00 in0.0 mm 0.13 in3.3 mm
07:50 PM 55.0°F12.8°C 50.6°F10.3°C 85% Calm Calm -- 29.75 in1007.5 mb 0.00 in0.0 mm 0.00 in0.0 mm 0.13 in3.3 mm
07:55 PM 54.7°F12.6°C 50.6°F10.3°C 86% Calm Calm -- 29.75 in1007.5 mb 0.00 in0.0 mm 0.00 in0.0 mm 0.13 in3.3 mm
08:00 PM 54.5°F12.5°C 50.7°F10.4°C 87% Calm Calm -- 29.75 in1007.5 mb 0.00 in0.0 mm 0.00 in0.0 mm 0.13 in3.3 mm
08:05 PM 54.3°F12.4°C 50.8°F10.4°C 88% Calm Calm -- 29.74 in1007.1 mb 0.00 in0.0 mm 0.00 in0.0 mm 0.13 in3.3 mm
08:10 PM 54.2°F12.3°C 50.7°F10.4°C 88% Calm Calm -- 29.74 in1007.1 mb 0.00 in0.0 mm 0.00 in0.0 mm 0.13 in3.3 mm
08:15 PM 54.1°F12.3°C 50.6°F10.3°C 88% Calm Calm -- 29.74 in1007.1 mb 0.00 in0.0 mm 0.00 in0.0 mm 0.13 in3.3 mm
08:20 PM 54.0°F12.2°C 50.5°F10.3°C 88% Calm Calm -- 29.74 in1007.1 mb 0.00 in0.0 mm 0.00 in0.0 mm 0.13 in3.3 mm
08:25 PM 54.0°F12.2°C 50.5°F10.3°C 88% Calm Calm -- 29.74 in1007.1 mb 0.00 in0.0 mm 0.00 in0.0 mm 0.13 in3.3 mm
08:30 PM 54.1°F12.3°C 50.6°F10.3°C 88% Calm Calm -- 29.75 in1007.5 mb 0.00 in0.0 mm 0.00 in0.0 mm 0.13 in3.3 mm
08:35 PM 54.3°F12.4°C 50.8°F10.4°C 88% Calm Calm -- 29.74 in1007.1 mb 0.00 in0.0 mm 0.00 in0.0 mm 0.13 in3.3 mm
08:40 PM 54.2°F12.3°C 50.7°F10.4°C 88% Calm Calm -- 29.75 in1007.5 mb 0.00 in0.0 mm 0.00 in0.0 mm 0.13 in3.3 mm
08:45 PM 54.2°F12.3°C 50.7°F10.4°C 88% Calm Calm -- 29.75 in1007.5 mb 0.00 in0.0 mm 0.00 in0.0 mm 0.13 in3.3 mm
08:50 PM 54.1°F12.3°C 50.6°F10.3°C 88% Calm Calm -- 29.74 in1007.1 mb 0.00 in0.0 mm 0.00 in0.0 mm 0.13 in3.3 mm
08:55 PM 54.0°F12.2°C 50.5°F10.3°C 88% Calm Calm -- 29.75 in1007.5 mb 0.00 in0.0 mm 0.00 in0.0 mm 0.13 in3.3 mm
09:00 PM 53.9°F12.2°C 50.7°F10.4°C 89% Calm Calm -- 29.74 in1007.1 mb 0.00 in0.0 mm 0.00 in0.0 mm 0.13 in3.3 mm
09:05 PM 53.8°F12.1°C 50.6°F10.3°C 89% Calm Calm -- 29.74 in1007.1 mb 0.00 in0.0 mm 0.00 in0.0 mm 0.13 in3.3 mm
09:10 PM 53.7°F12.1°C 50.5°F10.3°C 89% Calm Calm -- 29.74 in1007.1 mb 0.00 in0.0 mm 0.00 in0.0 mm 0.13 in3.3 mm
09:15 PM 53.7°F12.1°C 50.5°F10.3°C 89% Calm Calm -- 29.74 in1007.1 mb 0.00 in0.0 mm 0.00 in0.0 mm 0.13 in3.3 mm
09:20 PM 53.6°F12.0°C 50.4°F10.2°C 89% Calm Calm -- 29.74 in1007.1 mb 0.00 in0.0 mm 0.00 in0.0 mm 0.13 in3.3 mm
09:25 PM 53.6°F12.0°C 50.4°F10.2°C 89% Calm Calm -- 29.74 in1007.1 mb 0.00 in0.0 mm 0.00 in0.0 mm 0.13 in3.3 mm
09:30 PM 53.6°F12.0°C 50.1°F10.1°C 88% Calm Calm -- 29.74 in1007.1 mb 0.00 in0.0 mm 0.00 in0.0 mm 0.13 in3.3 mm
09:35 PM 53.5°F11.9°C 50.3°F10.2°C 89% Calm Calm -- 29.74 in1007.1 mb 0.00 in0.0 mm 0.00 in0.0 mm 0.13 in3.3 mm
09:40 PM 53.5°F11.9°C 50.3°F10.2°C 89% Calm Calm -- 29.74 in1007.1 mb 0.00 in0.0 mm 0.00 in0.0 mm 0.13 in3.3 mm
09:45 PM 53.5°F11.9°C 50.3°F10.2°C 89% Calm Calm -- 29.74 in1007.1 mb 0.00 in0.0 mm 0.00 in0.0 mm 0.13 in3.3 mm
09:50 PM 53.5°F11.9°C 50.3°F10.2°C 89% Calm Calm -- 29.73 in1006.8 mb 0.00 in0.0 mm 0.00 in0.0 mm 0.13 in3.3 mm
09:55 PM 53.5°F11.9°C 50.3°F10.2°C 89% Calm Calm -- 29.73 in1006.8 mb 0.00 in0.0 mm 0.00 in0.0 mm 0.13 in3.3 mm
10:00 PM 53.5°F11.9°C 50.3°F10.2°C 89% Calm Calm -- 29.73 in1006.8 mb 0.00 in0.0 mm 0.00 in0.0 mm 0.13 in3.3 mm
10:05 PM 53.4°F11.9°C 50.2°F10.1°C 89% Calm Calm -- 29.73 in1006.8 mb 0.00 in0.0 mm 0.00 in0.0 mm 0.13 in3.3 mm
10:10 PM 53.3°F11.8°C 50.1°F10.1°C 89% Calm Calm -- 29.73 in1006.8 mb 0.00 in0.0 mm 0.00 in0.0 mm 0.13 in3.3 mm
10:15 PM 53.3°F11.8°C 49.8°F9.9°C 88% Calm Calm -- 29.73 in1006.8 mb 0.00 in0.0 mm 0.00 in0.0 mm 0.13 in3.3 mm
10:20 PM 53.3°F11.8°C 49.8°F9.9°C 88% Calm Calm -- 29.73 in1006.8 mb 0.00 in0.0 mm 0.00 in0.0 mm 0.13 in3.3 mm
10:25 PM 53.3°F11.8°C 49.8°F9.9°C 88% Calm Calm -- 29.73 in1006.8 mb 0.00 in0.0 mm 0.00 in0.0 mm 0.13 in3.3 mm
10:30 PM 53.3°F11.8°C 49.8°F9.9°C 88% Calm Calm -- 29.73 in1006.8 mb 0.00 in0.0 mm 0.00 in0.0 mm 0.13 in3.3 mm
10:35 PM 53.4°F11.9°C 49.9°F9.9°C 88% Calm Calm -- 29.73 in1006.8 mb 0.00 in0.0 mm 0.00 in0.0 mm 0.13 in3.3 mm
10:40 PM 53.5°F11.9°C 50.0°F10.0°C 88% Calm Calm -- 29.72 in1006.4 mb 0.00 in0.0 mm 0.00 in0.0 mm 0.13 in3.3 mm
10:45 PM 53.6°F12.0°C 50.1°F10.1°C 88% Calm Calm -- 29.73 in1006.8 mb 0.00 in0.0 mm 0.00 in0.0 mm 0.13 in3.3 mm
10:50 PM 53.6°F12.0°C 50.1°F10.1°C 88% Calm Calm -- 29.72 in1006.4 mb 0.00 in0.0 mm 0.00 in0.0 mm 0.13 in3.3 mm
10:55 PM 53.5°F11.9°C 50.0°F10.0°C 88% Calm Calm -- 29.72 in1006.4 mb 0.00 in0.0 mm 0.00 in0.0 mm 0.13 in3.3 mm
11:00 PM 53.4°F11.9°C 49.9°F9.9°C 88% Calm Calm -- 29.72 in1006.4 mb 0.00 in0.0 mm 0.00 in0.0 mm 0.13 in3.3 mm
11:05 PM 53.4°F11.9°C 49.9°F9.9°C 88% Calm Calm -- 29.72 in1006.4 mb 0.00 in0.0 mm 0.00 in0.0 mm 0.13 in3.3 mm
11:10 PM 53.4°F11.9°C 49.9°F9.9°C 88% Calm Calm -- 29.72 in1006.4 mb 0.00 in0.0 mm 0.00 in0.0 mm 0.13 in3.3 mm
11:15 PM 53.4°F11.9°C 50.2°F10.1°C 89% Calm Calm -- 29.71 in1006.1 mb 0.00 in0.0 mm 0.00 in0.0 mm 0.13 in3.3 mm
11:20 PM 53.2°F11.8°C 50.0°F10.0°C 89% Calm Calm -- 29.71 in1006.1 mb 0.00 in0.0 mm 0.00 in0.0 mm 0.13 in3.3 mm
11:25 PM 53.2°F11.8°C 50.0°F10.0°C 89% Calm Calm -- 29.72 in1006.4 mb 0.01 in0.3 mm 0.12 in3.0 mm 0.13 in3.3 mm
11:30 PM 53.1°F11.7°C 50.2°F10.1°C 90% Calm Calm -- 29.72 in1006.4 mb 0.01 in0.3 mm 0.00 in0.0 mm 0.13 in3.3 mm
11:35 PM 53.0°F11.7°C 50.1°F10.1°C 90% Calm Calm -- 29.72 in1006.4 mb 0.01 in0.3 mm 0.00 in0.0 mm 0.13 in3.3 mm
11:40 PM 52.9°F11.6°C 50.0°F10.0°C 90% Calm Calm -- 29.71 in1006.1 mb 0.01 in0.3 mm 0.00 in0.0 mm 0.13 in3.3 mm
11:45 PM 52.8°F11.6°C 49.9°F9.9°C 90% Calm Calm -- 29.71 in1006.1 mb 0.01 in0.3 mm 0.00 in0.0 mm 0.13 in3.3 mm
11:50 PM 52.7°F11.5°C 49.8°F9.9°C 90% Calm Calm -- 29.71 in1006.1 mb 0.01 in0.3 mm 0.00 in0.0 mm 0.13 in3.3 mm
11:55 PM 52.8°F11.6°C 49.9°F9.9°C 90% Calm Calm -- 29.71 in1006.1 mb 0.01 in0.3 mm 0.00 in0.0 mm 0.13 in3.3 mm